createdAt,value
2017-10-15T00:00:48.076Z,78.50
2017-10-15T00:03:15.602Z,78.60
2017-10-15T00:05:43.155Z,78.60
2017-10-15T00:08:11.446Z,78.70
2017-10-15T00:10:39.496Z,78.60
2017-10-15T00:13:07.782Z,78.60
2017-10-15T00:15:36.065Z,78.60
2017-10-15T00:18:03.628Z,78.70
2017-10-15T00:20:31.138Z,78.70
2017-10-15T00:22:58.690Z,78.80
2017-10-15T00:25:26.493Z,78.80
2017-10-15T00:27:54.786Z,78.80
2017-10-15T00:30:23.093Z,78.80
2017-10-15T00:32:50.603Z,78.80
2017-10-15T00:35:18.147Z,78.80
2017-10-15T00:37:45.755Z,79.50
2017-10-15T00:40:13.301Z,78.90
2017-10-15T00:42:41.608Z,79.10
2017-10-15T00:45:09.139Z,79.00
2017-10-15T00:47:37.786Z,79.20
2017-10-15T00:50:05.294Z,79.20
2017-10-15T00:52:32.818Z,79.30
2017-10-15T00:55:00.362Z,79.30
2017-10-15T00:57:27.912Z,79.30
2017-10-15T00:59:55.487Z,79.30
2017-10-15T01:02:22.993Z,79.30
2017-10-15T01:04:50.516Z,79.30
2017-10-15T01:07:18.055Z,79.30
2017-10-15T01:09:46.101Z,79.20
2017-10-15T01:12:13.687Z,79.20
2017-10-15T01:14:41.246Z,79.30
2017-10-15T01:17:09.451Z,79.40
2017-10-15T01:19:37.029Z,79.50
2017-10-15T01:22:05.343Z,79.60
2017-10-15T01:24:32.920Z,79.60
2017-10-15T01:27:00.440Z,79.70
2017-10-15T01:29:27.945Z,79.80
2017-10-15T01:31:55.489Z,79.80
2017-10-15T01:34:23.007Z,79.80
2017-10-15T01:36:51.339Z,79.80
2017-10-15T01:39:18.849Z,79.90
2017-10-15T01:41:47.124Z,79.80
2017-10-15T01:44:15.458Z,79.90
2017-10-15T01:46:42.996Z,79.90
2017-10-15T01:49:10.550Z,79.90
2017-10-15T01:51:38.065Z,80.00
2017-10-15T01:54:05.606Z,79.90
2017-10-15T01:56:33.143Z,80.00
2017-10-15T01:59:00.687Z,80.00
2017-10-15T02:01:28.247Z,80.10
2017-10-15T02:03:55.772Z,80.10
2017-10-15T02:06:23.276Z,80.10
2017-10-15T02:08:50.814Z,80.10
2017-10-15T02:11:19.095Z,80.10
2017-10-15T02:13:47.692Z,80.10
2017-10-15T02:16:15.207Z,80.30
2017-10-15T02:18:42.709Z,80.20
2017-10-15T02:21:10.264Z,80.30
2017-10-15T02:23:38.642Z,80.30
2017-10-15T02:26:06.203Z,80.20
2017-10-15T02:28:33.748Z,80.20
2017-10-15T02:31:02.043Z,80.30
2017-10-15T02:33:29.601Z,80.30
2017-10-15T02:35:57.903Z,80.30
2017-10-15T02:38:25.763Z,80.40
2017-10-15T02:40:53.271Z,80.40
2017-10-15T02:43:20.792Z,80.40
2017-10-15T02:45:48.339Z,80.40
2017-10-15T02:48:15.856Z,80.40
2017-10-15T02:50:43.411Z,80.50
2017-10-15T02:53:11.031Z,80.40
2017-10-15T02:55:38.564Z,80.40
2017-10-15T02:58:06.868Z,80.50
2017-10-15T03:00:34.385Z,80.50
2017-10-15T03:03:03.102Z,80.60
2017-10-15T03:05:30.625Z,80.60
2017-10-15T03:07:58.153Z,80.60
2017-10-15T03:10:25.690Z,80.50
2017-10-15T03:12:53.255Z,80.50
2017-10-15T03:15:21.085Z,80.60
2017-10-15T03:17:48.627Z,80.50
2017-10-15T03:20:16.141Z,80.60
2017-10-15T03:22:43.686Z,80.60
2017-10-15T03:25:11.199Z,80.60
2017-10-15T03:27:38.740Z,80.50
2017-10-15T03:30:06.249Z,80.50
2017-10-15T03:32:34.530Z,80.50
2017-10-15T03:35:02.834Z,80.50
2017-10-15T03:37:30.359Z,80.50
2017-10-15T03:39:58.677Z,80.50
2017-10-15T03:42:26.185Z,80.50
2017-10-15T03:44:54.474Z,81.20
2017-10-15T03:47:22.795Z,80.50
2017-10-15T03:49:50.320Z,80.50
2017-10-15T03:52:18.641Z,80.50
2017-10-15T03:54:46.162Z,80.50
2017-10-15T03:57:14.438Z,80.40
2017-10-15T03:59:42.753Z,80.50
2017-10-15T04:02:10.315Z,80.50
2017-10-15T04:04:37.880Z,80.50
2017-10-15T04:07:05.397Z,80.50
2017-10-15T04:09:33.669Z,80.50
2017-10-15T04:12:01.965Z,80.50
2017-10-15T04:14:29.474Z,80.30
2017-10-15T04:16:57.038Z,80.30
2017-10-15T04:19:24.560Z,80.30
2017-10-15T04:21:52.074Z,80.40
2017-10-15T04:24:19.619Z,80.40
2017-10-15T04:26:47.134Z,81.20
2017-10-15T04:29:14.683Z,80.40
2017-10-15T04:31:42.192Z,80.40
2017-10-15T04:34:09.705Z,80.40
2017-10-15T04:36:37.281Z,80.40
2017-10-15T04:39:04.805Z,80.50
2017-10-15T04:41:33.395Z,80.40
2017-10-15T04:44:01.674Z,80.40
2017-10-15T04:46:29.958Z,80.40
2017-10-15T04:49:00.582Z,80.40
2017-10-15T04:51:28.133Z,80.40
2017-10-15T04:53:56.476Z,80.40
2017-10-15T04:56:23.979Z,80.40
2017-10-15T04:58:52.255Z,80.40
2017-10-15T05:01:20.562Z,80.40
2017-10-15T05:03:48.568Z,80.30
2017-10-15T05:06:16.351Z,80.40
2017-10-15T05:08:43.853Z,80.30
2017-10-15T05:11:11.365Z,80.30
2017-10-15T05:13:38.894Z,80.30
2017-10-15T05:16:06.405Z,80.30
2017-10-15T05:18:35.015Z,80.30
2017-10-15T05:21:02.523Z,80.20
2017-10-15T05:23:30.037Z,80.30
2017-10-15T05:25:57.572Z,80.30
2017-10-15T05:28:25.840Z,80.20
2017-10-15T05:30:54.454Z,80.20
2017-10-15T05:33:21.988Z,80.20
2017-10-15T05:35:50.301Z,80.20
2017-10-15T05:38:17.837Z,80.20
2017-10-15T05:40:46.111Z,80.20
2017-10-15T05:43:14.417Z,80.10
2017-10-15T05:45:41.927Z,80.10
2017-10-15T05:48:09.432Z,80.20
2017-10-15T05:50:36.968Z,80.20
2017-10-15T05:53:04.485Z,80.20
2017-10-15T05:55:32.294Z,80.20
2017-10-15T05:58:00.693Z,80.30
2017-10-15T06:00:28.233Z,80.30
2017-10-15T06:02:56.540Z,80.40
2017-10-15T06:05:24.057Z,80.40
2017-10-15T06:07:51.974Z,80.40
2017-10-15T06:10:20.244Z,80.40
2017-10-15T06:12:47.757Z,80.40
2017-10-15T06:15:15.315Z,80.40
2017-10-15T06:17:42.842Z,80.90
2017-10-15T06:20:10.570Z,80.60
2017-10-15T06:22:38.843Z,80.60
2017-10-15T06:25:07.113Z,80.60
2017-10-15T06:27:35.418Z,80.70
2017-10-15T06:30:02.946Z,80.70
2017-10-15T06:32:31.278Z,80.80
2017-10-15T06:34:58.829Z,80.80
2017-10-15T06:37:26.366Z,80.70
2017-10-15T06:39:54.675Z,80.80
2017-10-15T06:42:22.954Z,80.80
2017-10-15T06:44:50.777Z,80.90
2017-10-15T06:47:19.055Z,80.90
2017-10-15T06:49:47.344Z,80.90
2017-10-15T06:52:14.925Z,80.90
2017-10-15T06:54:42.430Z,80.90
2017-10-15T06:57:10.246Z,81.00
2017-10-15T06:59:37.759Z,80.90
2017-10-15T07:02:05.329Z,81.20
2017-10-15T07:04:33.644Z,80.80
2017-10-15T07:07:01.200Z,80.90
2017-10-15T07:09:29.139Z,80.80
2017-10-15T07:11:56.670Z,80.90
2017-10-15T07:14:24.189Z,81.00
2017-10-15T07:16:51.725Z,80.70
2017-10-15T07:19:20.007Z,80.70
2017-10-15T07:21:48.773Z,80.70
2017-10-15T07:24:16.298Z,80.70
2017-10-15T07:26:43.916Z,80.80
2017-10-15T07:29:12.316Z,80.40
2017-10-15T07:31:40.003Z,80.40
2017-10-15T07:34:08.459Z,80.30
2017-10-15T07:36:36.058Z,80.30
2017-10-15T07:39:03.626Z,80.40
2017-10-15T07:41:34.348Z,80.10
2017-10-15T07:44:02.876Z,80.10
2017-10-15T07:46:31.539Z,79.90
2017-10-15T07:48:59.323Z,79.90
2017-10-15T07:51:26.937Z,79.70
2017-10-15T07:53:56.006Z,79.40
2017-10-15T07:56:24.573Z,79.30
2017-10-15T07:58:52.381Z,79.40
2017-10-15T08:01:23.837Z,78.80
2017-10-15T08:03:51.486Z,78.60
2017-10-15T08:06:23.371Z,78.40
2017-10-15T08:08:50.970Z,78.30
2017-10-15T08:11:19.568Z,77.90
2017-10-15T08:13:47.888Z,77.90
2017-10-15T08:16:15.600Z,77.90
2017-10-15T08:18:43.163Z,77.70
2017-10-15T08:21:11.636Z,77.50
2017-10-15T08:23:39.529Z,77.50
2017-10-15T08:26:07.310Z,77.70
2017-10-15T08:28:34.958Z,77.40
2017-10-15T08:31:02.734Z,77.30
2017-10-15T08:33:30.357Z,77.30
2017-10-15T08:35:58.753Z,76.70
2017-10-15T08:38:27.140Z,76.60
2017-10-15T08:40:54.770Z,76.70
2017-10-15T08:43:22.360Z,76.30
2017-10-15T08:45:50.727Z,75.80
2017-10-15T08:48:18.748Z,75.80
2017-10-15T08:50:47.352Z,75.50
2017-10-15T08:53:14.933Z,75.50
2017-10-15T08:55:42.504Z,76.00
2017-10-15T08:58:10.946Z,75.40
2017-10-15T09:00:38.887Z,74.60
2017-10-15T09:03:06.441Z,74.40
2017-10-15T09:05:33.982Z,74.10
2017-10-15T09:08:02.430Z,73.60
2017-10-15T09:10:30.486Z,73.60
2017-10-15T09:12:58.496Z,73.80
2017-10-15T09:15:26.690Z,73.30
2017-10-15T09:17:55.448Z,73.00
2017-10-15T09:20:24.203Z,72.70
2017-10-15T09:22:53.207Z,71.90
2017-10-15T09:25:22.127Z,72.10
2017-10-15T09:27:50.820Z,71.10
2017-10-15T09:30:18.611Z,71.20
2017-10-15T09:32:46.924Z,70.60
2017-10-15T09:35:15.250Z,70.10
2017-10-15T09:37:43.036Z,70.00
2017-10-15T09:40:11.477Z,69.80
2017-10-15T09:42:39.113Z,69.90
2017-10-15T09:45:07.649Z,69.60
2017-10-15T09:47:35.692Z,69.80
2017-10-15T09:50:04.252Z,69.00
2017-10-15T09:52:31.790Z,68.80
2017-10-15T09:54:59.722Z,68.80
2017-10-15T09:57:27.263Z,68.60
2017-10-15T09:59:54.766Z,68.30
2017-10-15T10:02:23.090Z,67.60
2017-10-15T10:04:50.623Z,67.50
2017-10-15T10:07:18.188Z,67.20
2017-10-15T10:09:45.740Z,66.90
2017-10-15T10:12:13.267Z,66.70
2017-10-15T10:14:40.837Z,66.50
2017-10-15T10:17:09.126Z,66.00
2017-10-15T10:19:36.658Z,65.90
2017-10-15T10:22:04.204Z,65.90
2017-10-15T10:24:32.435Z,65.70
2017-10-15T10:27:00.221Z,65.50
2017-10-15T10:29:28.600Z,65.00
2017-10-15T10:31:58.810Z,64.40
2017-10-15T10:34:26.540Z,64.80
2017-10-15T10:36:54.137Z,64.10
2017-10-15T10:39:21.796Z,64.00
2017-10-15T10:41:49.462Z,63.80
2017-10-15T10:44:17.125Z,64.10
2017-10-15T10:46:45.486Z,63.50
2017-10-15T10:49:13.124Z,63.50
2017-10-15T10:51:42.311Z,63.00
2017-10-15T10:54:10.053Z,63.00
2017-10-15T10:56:41.391Z,63.10
2017-10-15T10:59:09.788Z,63.10
2017-10-15T11:01:38.591Z,63.10
2017-10-15T11:04:06.558Z,63.20
2017-10-15T11:06:34.163Z,62.60
2017-10-15T11:09:02.868Z,62.10
2017-10-15T11:11:31.400Z,62.30
2017-10-15T11:13:59.041Z,62.40
2017-10-15T11:16:26.584Z,61.80
2017-10-15T11:18:54.093Z,61.50
2017-10-15T11:21:21.620Z,61.60
2017-10-15T11:23:50.049Z,61.50
2017-10-15T11:26:18.372Z,61.50
2017-10-15T11:28:45.893Z,61.50
2017-10-15T11:31:14.195Z,58.60
2017-10-15T11:33:41.789Z,58.50
2017-10-15T11:36:09.338Z,56.70
2017-10-15T11:38:36.887Z,55.20
2017-10-15T11:41:04.424Z,53.70
2017-10-15T11:43:31.943Z,52.10
2017-10-15T11:45:59.505Z,50.70
2017-10-15T11:48:27.361Z,49.30
2017-10-15T11:50:54.904Z,47.90
2017-10-15T11:53:23.200Z,45.40
2017-10-15T11:55:50.745Z,45.20
2017-10-15T11:58:18.317Z,43.70
2017-10-15T12:00:45.843Z,42.70
2017-10-15T12:03:13.406Z,41.50
2017-10-15T12:05:40.921Z,40.20
2017-10-15T12:08:09.272Z,38.50
2017-10-15T12:10:38.043Z,38.30
2017-10-15T12:13:06.353Z,37.00
2017-10-15T12:15:33.901Z,36.90
2017-10-15T12:18:02.078Z,36.80
2017-10-15T12:20:29.658Z,36.50
2017-10-15T12:22:57.308Z,36.30
2017-10-15T12:25:24.835Z,36.10
2017-10-15T12:27:52.392Z,35.50
2017-10-15T12:30:19.925Z,35.10
2017-10-15T12:32:48.227Z,34.20
2017-10-15T12:35:15.745Z,34.10
2017-10-15T12:37:43.293Z,34.20
2017-10-15T12:40:10.803Z,33.60
2017-10-15T12:42:38.341Z,33.80
2017-10-15T12:45:06.644Z,32.90
2017-10-15T12:47:34.853Z,32.80
2017-10-15T12:50:02.446Z,32.80
2017-10-15T12:52:30.036Z,32.40
2017-10-15T12:54:57.542Z,32.40
2017-10-15T12:57:25.094Z,32.90
2017-10-15T12:59:52.649Z,32.10
2017-10-15T13:02:20.181Z,32.00
2017-10-15T13:04:47.725Z,32.00
2017-10-15T13:07:16.030Z,32.20
2017-10-15T13:09:43.541Z,32.10
2017-10-15T13:12:11.086Z,32.20
2017-10-15T13:14:38.618Z,32.00
2017-10-15T13:17:06.161Z,31.60
2017-10-15T13:19:33.702Z,31.40
2017-10-15T13:22:02.391Z,32.90
2017-10-15T13:24:30.674Z,34.20
2017-10-15T13:26:58.977Z,35.30
2017-10-15T13:29:26.530Z,35.30
2017-10-15T13:31:54.859Z,36.30
2017-10-15T13:34:22.390Z,37.70
2017-10-15T13:36:49.916Z,38.90
2017-10-15T13:39:18.710Z,38.80
2017-10-15T13:41:46.261Z,38.80
2017-10-15T13:44:14.638Z,39.40
2017-10-15T13:46:42.187Z,39.40
2017-10-15T13:49:10.581Z,40.90
2017-10-15T13:51:38.124Z,40.80
2017-10-15T13:54:05.731Z,41.60
2017-10-15T13:56:33.290Z,42.20
2017-10-15T13:59:01.681Z,43.40
2017-10-15T14:01:29.226Z,43.40
2017-10-15T14:03:56.876Z,43.90
2017-10-15T14:06:24.468Z,44.60
2017-10-15T14:08:52.230Z,45.10
2017-10-15T14:11:20.410Z,45.40
2017-10-15T14:13:47.998Z,45.80
2017-10-15T14:16:16.259Z,46.30
2017-10-15T14:18:43.879Z,46.70
2017-10-15T14:21:11.400Z,47.00
2017-10-15T14:23:38.959Z,47.20
2017-10-15T14:26:07.421Z,47.70
2017-10-15T14:28:34.994Z,47.70
2017-10-15T14:31:02.883Z,47.90
2017-10-15T14:33:30.598Z,48.10
2017-10-15T14:35:58.110Z,48.20
2017-10-15T14:38:25.632Z,48.20
2017-10-15T14:40:53.144Z,48.20
2017-10-15T14:43:20.861Z,48.40
2017-10-15T14:45:50.200Z,48.50
2017-10-15T14:48:17.931Z,48.60
2017-10-15T14:50:47.146Z,48.80
2017-10-15T14:53:14.755Z,48.80
2017-10-15T14:55:42.329Z,49.40
2017-10-15T14:58:09.834Z,48.80
2017-10-15T15:00:37.456Z,48.90
2017-10-15T15:03:05.065Z,49.20
2017-10-15T15:05:33.050Z,49.40
2017-10-15T15:08:00.608Z,50.00
2017-10-15T15:10:29.701Z,50.00
2017-10-15T15:12:58.074Z,50.10
2017-10-15T15:15:26.373Z,50.90
2017-10-15T15:17:54.746Z,50.30
2017-10-15T15:20:22.284Z,50.50
2017-10-15T15:22:50.123Z,50.50
2017-10-15T15:25:17.765Z,50.60
2017-10-15T15:27:45.327Z,50.60
2017-10-15T15:30:12.999Z,50.80
2017-10-15T15:32:40.680Z,51.00
2017-10-15T15:35:09.106Z,51.30
2017-10-15T15:37:37.504Z,51.30
2017-10-15T15:40:05.258Z,51.30
2017-10-15T15:42:32.952Z,51.50
2017-10-15T15:45:00.642Z,51.70
2017-10-15T15:47:29.299Z,51.90
2017-10-15T15:49:57.200Z,51.90
2017-10-15T15:52:25.007Z,52.20
2017-10-15T15:54:52.586Z,52.30
2017-10-15T15:57:20.162Z,52.30
2017-10-15T15:59:47.948Z,52.40
2017-10-15T16:02:16.448Z,52.60
2017-10-15T16:04:44.075Z,52.80
2017-10-15T16:07:11.682Z,53.00
2017-10-15T16:09:40.123Z,53.70
2017-10-15T16:12:07.801Z,53.30
2017-10-15T16:14:35.481Z,53.60
2017-10-15T16:17:03.092Z,53.90
2017-10-15T16:19:31.523Z,54.50
2017-10-15T16:21:59.077Z,54.30
2017-10-15T16:24:27.113Z,54.50
2017-10-15T16:27:00.984Z,54.70
2017-10-15T16:29:52.437Z,55.10
2017-10-15T16:32:26.012Z,55.30
2017-10-15T16:34:55.341Z,55.60
2017-10-15T16:37:22.844Z,56.00
2017-10-15T16:39:50.406Z,55.90
2017-10-15T16:42:17.938Z,56.20
2017-10-15T16:44:45.483Z,56.30
2017-10-15T16:47:13.042Z,56.60
2017-10-15T16:49:40.559Z,56.80
2017-10-15T16:52:08.860Z,57.20
2017-10-15T16:54:40.188Z,57.80
2017-10-15T16:57:08.497Z,57.60
2017-10-15T16:59:36.016Z,57.70
2017-10-15T17:02:03.591Z,57.90
2017-10-15T17:04:31.883Z,58.20
2017-10-15T17:07:00.186Z,58.40
2017-10-15T17:09:27.738Z,58.40
2017-10-15T17:11:55.267Z,58.60
2017-10-15T17:14:23.579Z,58.90
2017-10-15T17:16:51.248Z,58.90
2017-10-15T17:19:18.876Z,59.10
2017-10-15T17:21:47.203Z,59.40
2017-10-15T17:24:14.734Z,59.40
2017-10-15T17:26:42.309Z,59.40
2017-10-15T17:29:09.869Z,59.70
2017-10-15T17:31:37.432Z,59.70
2017-10-15T17:34:04.964Z,60.00
2017-10-15T17:36:33.671Z,60.30
2017-10-15T17:39:01.263Z,60.30
2017-10-15T17:41:29.109Z,60.30
2017-10-15T17:43:56.698Z,60.50
2017-10-15T17:46:24.331Z,60.70
2017-10-15T17:48:51.907Z,61.00
2017-10-15T17:51:19.452Z,61.10
2017-10-15T17:53:47.087Z,61.20
2017-10-15T17:56:14.619Z,61.50
2017-10-15T17:58:42.196Z,61.60
2017-10-15T18:01:10.621Z,62.10
2017-10-15T18:03:38.211Z,62.10
2017-10-15T18:06:05.918Z,62.30
2017-10-15T18:08:34.447Z,62.50
2017-10-15T18:11:02.037Z,62.70
2017-10-15T18:13:30.833Z,62.70
2017-10-15T18:15:59.987Z,62.90
2017-10-15T18:18:27.845Z,63.20
2017-10-15T18:20:55.645Z,63.20
2017-10-15T18:23:23.340Z,63.40
2017-10-15T18:25:51.111Z,63.60
2017-10-15T18:28:19.628Z,64.00
2017-10-15T18:30:47.671Z,64.00
2017-10-15T18:33:15.875Z,64.80
2017-10-15T18:35:43.505Z,64.90
2017-10-15T18:38:11.223Z,64.60
2017-10-15T18:40:38.962Z,64.80
2017-10-15T18:43:06.614Z,65.10
2017-10-15T18:45:34.196Z,65.30
2017-10-15T18:48:01.872Z,65.40
2017-10-15T18:50:29.684Z,65.70
2017-10-15T18:52:57.532Z,65.90
2017-10-15T18:55:25.598Z,66.00
2017-10-15T18:57:54.080Z,66.30
2017-10-15T19:00:22.547Z,66.60
2017-10-15T19:02:50.949Z,66.80
2017-10-15T19:05:18.577Z,66.90
2017-10-15T19:07:46.200Z,66.90
2017-10-15T19:10:14.560Z,67.10
2017-10-15T19:12:42.980Z,67.30
2017-10-15T19:15:10.551Z,67.30
2017-10-15T19:17:38.276Z,67.60
2017-10-15T19:20:06.701Z,68.00
2017-10-15T19:22:34.553Z,68.10
2017-10-15T19:25:05.094Z,68.60
2017-10-15T19:27:32.775Z,68.40
2017-10-15T19:30:00.459Z,68.70
2017-10-15T19:32:28.311Z,69.00
2017-10-15T19:34:55.974Z,69.10
2017-10-15T19:37:23.916Z,69.40
2017-10-15T19:39:52.028Z,69.60
2017-10-15T19:42:20.475Z,70.00
2017-10-15T19:44:49.108Z,70.00
2017-10-15T19:47:17.579Z,70.30
2017-10-15T19:49:45.167Z,70.40
2017-10-15T19:52:12.770Z,70.60
2017-10-15T19:54:40.425Z,70.70
2017-10-15T19:57:08.101Z,70.90
2017-10-15T19:59:36.765Z,71.10
2017-10-15T20:02:04.990Z,71.20
2017-10-15T20:04:32.624Z,71.50
2017-10-15T20:07:00.230Z,71.50
2017-10-15T20:09:28.278Z,71.80
2017-10-15T20:11:55.872Z,72.10
2017-10-15T20:14:24.217Z,72.60
2017-10-15T20:16:52.039Z,72.60
2017-10-15T20:19:19.358Z,72.80
2017-10-15T20:21:47.060Z,73.00
2017-10-15T20:24:14.762Z,73.20
2017-10-15T20:26:43.122Z,74.00
2017-10-15T20:29:10.823Z,73.30
2017-10-15T20:31:39.209Z,73.40
2017-10-15T20:34:06.773Z,73.50
2017-10-15T20:36:34.404Z,73.50
2017-10-15T20:39:02.001Z,73.70
2017-10-15T20:41:29.592Z,73.80
2017-10-15T20:43:57.161Z,73.80
2017-10-15T20:46:24.753Z,74.00
2017-10-15T20:48:52.369Z,74.10
2017-10-15T20:51:19.948Z,74.20
2017-10-15T20:53:47.479Z,74.20
2017-10-15T20:56:15.870Z,74.20
2017-10-15T20:58:43.422Z,74.20
2017-10-15T21:01:11.775Z,74.40
2017-10-15T21:03:39.356Z,74.50
2017-10-15T21:06:06.977Z,74.70
2017-10-15T21:08:34.542Z,74.80
2017-10-15T21:11:02.171Z,74.70
2017-10-15T21:13:29.689Z,74.70
2017-10-15T21:15:57.234Z,74.80
2017-10-15T21:18:24.779Z,74.80
2017-10-15T21:20:54.260Z,74.90
2017-10-15T21:23:21.786Z,75.10
2017-10-15T21:25:50.140Z,75.10
2017-10-15T21:28:17.673Z,75.10
2017-10-15T21:30:45.263Z,75.10
2017-10-15T21:33:12.796Z,75.30
2017-10-15T21:35:40.362Z,75.20
2017-10-15T21:38:07.888Z,75.30
2017-10-15T21:40:35.798Z,75.40
2017-10-15T21:43:03.330Z,75.50
2017-10-15T21:45:30.921Z,75.60
2017-10-15T21:47:58.558Z,75.70
2017-10-15T21:50:26.062Z,75.90
2017-10-15T21:52:53.610Z,76.00
2017-10-15T21:55:21.131Z,75.90
2017-10-15T21:57:48.707Z,76.00
2017-10-15T22:00:16.231Z,76.10
2017-10-15T22:02:44.818Z,76.10
2017-10-15T22:05:12.349Z,76.10
2017-10-15T22:07:39.887Z,76.20
2017-10-15T22:10:07.731Z,76.20
2017-10-15T22:12:35.247Z,76.40
2017-10-15T22:15:03.545Z,76.50
2017-10-15T22:17:31.435Z,76.50
2017-10-15T22:19:58.956Z,76.50
2017-10-15T22:22:27.249Z,76.70
2017-10-15T22:24:55.846Z,76.60
2017-10-15T22:27:23.394Z,76.60
2017-10-15T22:29:50.920Z,76.70
2017-10-15T22:32:18.835Z,76.80
2017-10-15T22:34:46.352Z,76.90
2017-10-15T22:37:13.877Z,77.00
2017-10-15T22:39:41.713Z,77.00
2017-10-15T22:42:09.244Z,77.10
2017-10-15T22:44:36.770Z,77.20
2017-10-15T22:47:04.623Z,77.30
2017-10-15T22:49:32.135Z,77.20
2017-10-15T22:51:59.662Z,77.20
2017-10-15T22:54:27.508Z,77.30
2017-10-15T22:56:55.066Z,77.20
2017-10-15T22:59:22.576Z,77.20
2017-10-15T23:01:50.488Z,77.30
2017-10-15T23:04:17.999Z,77.30
2017-10-15T23:06:45.608Z,77.20
2017-10-15T23:09:13.432Z,77.10
2017-10-15T23:11:40.959Z,77.00
2017-10-15T23:14:08.476Z,77.10
2017-10-15T23:16:37.094Z,76.80
2017-10-15T23:19:04.626Z,76.80
2017-10-15T23:21:32.137Z,76.80
2017-10-15T23:23:59.979Z,76.80
2017-10-15T23:26:27.602Z,76.90
2017-10-15T23:28:55.993Z,77.00
2017-10-15T23:31:24.561Z,77.10
2017-10-15T23:33:52.061Z,77.10
2017-10-15T23:36:19.566Z,77.10
2017-10-15T23:38:47.539Z,77.00
2017-10-15T23:41:15.041Z,76.90
2017-10-15T23:43:42.551Z,76.90
2017-10-15T23:46:10.505Z,76.90
2017-10-15T23:48:38.019Z,76.90
2017-10-15T23:51:06.398Z,77.10
2017-10-15T23:53:34.235Z,77.10
2017-10-15T23:56:02.533Z,77.20
2017-10-15T23:58:30.846Z,77.10
